createdAt,value
2023-04-22T00:01:43.762Z,6.43
2023-04-22T00:04:11.336Z,6.68
2023-04-22T00:06:38.776Z,6.40
2023-04-22T00:09:06.041Z,5.90
2023-04-22T00:11:33.274Z,5.80
2023-04-22T00:14:00.486Z,6.05
2023-04-22T00:16:27.976Z,5.60
2023-04-22T00:18:55.263Z,6.00
2023-04-22T00:21:22.534Z,6.53
2023-04-22T00:23:49.752Z,6.45
2023-04-22T00:26:16.984Z,6.35
2023-04-22T00:28:44.407Z,5.70
2023-04-22T00:31:11.845Z,5.93
2023-04-22T00:33:39.065Z,5.82
2023-04-22T00:36:06.709Z,5.97
2023-04-22T00:38:34.288Z,5.72
2023-04-22T00:41:02.457Z,6.40
2023-04-22T00:43:29.708Z,6.70
2023-04-22T00:45:58.011Z,6.50
2023-04-22T00:48:28.213Z,6.38
2023-04-22T00:50:56.273Z,6.28
2023-04-22T00:53:23.488Z,6.85
2023-04-22T00:55:50.964Z,6.85
2023-04-22T00:58:20.942Z,6.70
2023-04-22T01:00:48.249Z,6.68
2023-04-22T01:03:15.998Z,6.70
2023-04-22T01:05:43.834Z,6.93
2023-04-22T01:08:11.950Z,6.80
2023-04-22T01:10:39.468Z,7.25
2023-04-22T01:13:06.744Z,7.13
2023-04-22T01:15:34.250Z,7.57
2023-04-22T01:18:02.624Z,7.03
2023-04-22T01:20:30.672Z,6.55
2023-04-22T01:23:03.119Z,7.10
2023-04-22T01:25:30.966Z,6.95
2023-04-22T01:27:58.590Z,6.93
2023-04-22T01:30:26.427Z,7.38
2023-04-22T01:32:53.955Z,7.70
2023-04-22T01:35:21.582Z,7.20
2023-04-22T01:37:48.823Z,7.63
2023-04-22T01:40:19.733Z,7.78
2023-04-22T01:42:47.411Z,7.50
2023-04-22T01:45:17.675Z,7.53
2023-04-22T01:47:45.043Z,7.13
2023-04-22T01:50:12.240Z,7.05
2023-04-22T01:52:39.716Z,7.35
2023-04-22T01:55:08.611Z,7.63
2023-04-22T01:57:36.739Z,8.23
2023-04-22T02:00:05.963Z,7.63
2023-04-22T02:02:40.246Z,7.97
2023-04-22T02:05:08.435Z,8.07
2023-04-22T02:07:36.453Z,7.25
2023-04-22T02:10:05.652Z,7.45
2023-04-22T02:12:32.917Z,7.25
2023-04-22T02:15:00.248Z,7.40
2023-04-22T02:17:27.717Z,7.50
2023-04-22T02:19:55.344Z,7.95
2023-04-22T02:22:24.118Z,7.10
2023-04-22T02:24:51.782Z,7.45
2023-04-22T02:27:19.074Z,7.38
2023-04-22T02:29:48.369Z,6.95
2023-04-22T02:32:17.906Z,7.75
2023-04-22T02:34:45.194Z,7.25
2023-04-22T02:37:13.611Z,7.50
2023-04-22T02:39:41.173Z,7.20
2023-04-22T02:42:08.831Z,7.53
2023-04-22T02:44:36.111Z,7.50
2023-04-22T02:47:03.829Z,7.47
2023-04-22T02:49:31.243Z,7.35
2023-04-22T02:51:58.477Z,7.15
2023-04-22T02:54:25.706Z,7.35
2023-04-22T02:56:52.915Z,7.78
2023-04-22T02:59:20.164Z,7.50
2023-04-22T03:01:47.447Z,7.63
2023-04-22T03:04:26.080Z,7.80
2023-04-22T03:06:53.887Z,8.05
2023-04-22T03:09:21.152Z,7.75
2023-04-22T03:11:48.387Z,8.10
2023-04-22T03:14:15.789Z,7.85
2023-04-22T03:16:43.110Z,7.57
2023-04-22T03:19:10.479Z,8.23
2023-04-22T03:21:37.714Z,7.72
2023-04-22T03:24:05.971Z,8.27
2023-04-22T03:26:34.912Z,7.97
2023-04-22T03:29:02.247Z,7.25
2023-04-22T03:31:29.576Z,7.45
2023-04-22T03:33:57.165Z,7.95
2023-04-22T03:36:28.502Z,8.00
2023-04-22T03:38:57.044Z,8.82
2023-04-22T03:41:29.060Z,8.18
2023-04-22T03:43:56.600Z,8.52
2023-04-22T03:46:24.978Z,8.57
2023-04-22T03:49:12.565Z,8.50
2023-04-22T03:51:40.543Z,9.27
2023-04-22T03:54:12.503Z,7.78
2023-04-22T03:56:46.528Z,7.97
2023-04-22T03:59:14.026Z,7.65
2023-04-22T04:01:41.325Z,8.05
2023-04-22T04:04:10.438Z,8.23
2023-04-22T04:06:51.224Z,8.13
2023-04-22T04:09:18.711Z,8.23
2023-04-22T04:11:46.961Z,8.98
2023-04-22T04:14:14.799Z,8.25
2023-04-22T04:16:52.413Z,8.35
2023-04-22T04:19:29.072Z,8.13
2023-04-22T04:21:57.059Z,7.95
2023-04-22T04:24:26.410Z,8.20
2023-04-22T04:27:00.371Z,8.43
2023-04-22T04:29:33.239Z,8.68
2023-04-22T04:32:12.421Z,9.38
2023-04-22T04:34:39.649Z,8.77
2023-04-22T04:37:09.195Z,9.90
2023-04-22T04:39:46.639Z,9.10
2023-04-22T04:42:14.555Z,9.98
2023-04-22T04:44:50.959Z,10.60
2023-04-22T04:47:22.517Z,10.10
2023-04-22T04:49:54.267Z,10.30
2023-04-22T04:52:21.786Z,10.60
2023-04-22T04:54:49.141Z,9.75
2023-04-22T04:57:16.557Z,9.43
2023-04-22T04:59:43.950Z,9.38
2023-04-22T05:02:11.499Z,9.77
2023-04-22T05:04:39.212Z,9.45
2023-04-22T05:07:06.711Z,9.23
2023-04-22T05:09:37.644Z,10.35
2023-04-22T05:12:05.627Z,9.73
2023-04-22T05:14:33.072Z,10.45
2023-04-22T05:17:00.698Z,9.43
2023-04-22T05:19:28.861Z,9.70
2023-04-22T05:21:57.554Z,8.52
2023-04-22T05:24:25.096Z,9.68
2023-04-22T05:26:53.208Z,9.68
2023-04-22T05:29:20.951Z,9.32
2023-04-22T05:31:51.291Z,9.60
2023-04-22T05:34:18.641Z,9.82
2023-04-22T05:36:46.040Z,9.45
2023-04-22T05:39:14.293Z,9.60
2023-04-22T05:41:41.569Z,8.82
2023-04-22T05:44:11.001Z,9.32
2023-04-22T05:46:38.784Z,9.60
2023-04-22T05:49:06.110Z,9.93
2023-04-22T05:51:56.401Z,8.65
2023-04-22T05:54:29.374Z,9.18
2023-04-22T05:56:57.003Z,9.65
2023-04-22T05:59:24.571Z,9.80
2023-04-22T06:01:51.829Z,9.65
2023-04-22T06:04:21.011Z,10.02
2023-04-22T06:06:48.816Z,10.20
2023-04-22T06:09:16.048Z,10.18
2023-04-22T06:11:43.428Z,10.57
2023-04-22T06:14:12.245Z,10.57
2023-04-22T06:16:41.223Z,9.90
2023-04-22T06:19:09.042Z,10.70
2023-04-22T06:21:40.053Z,10.55
2023-04-22T06:24:07.516Z,10.35
2023-04-22T06:26:34.874Z,10.77
2023-04-22T06:29:05.209Z,10.15
2023-04-22T06:31:33.541Z,10.07
2023-04-22T06:34:00.940Z,9.10
2023-04-22T06:36:30.563Z,9.65
2023-04-22T06:39:02.582Z,8.98
2023-04-22T06:41:49.189Z,9.43
2023-04-22T06:44:42.729Z,9.27
2023-04-22T06:47:29.054Z,8.43
2023-04-22T06:50:04.079Z,8.33
2023-04-22T06:52:37.299Z,8.80
2023-04-22T06:55:04.927Z,9.10
2023-04-22T06:57:32.249Z,8.10
2023-04-22T06:59:59.890Z,9.02
2023-04-22T07:02:28.115Z,8.68
2023-04-22T07:04:55.525Z,9.27
2023-04-22T07:07:22.982Z,8.48
2023-04-22T07:09:50.747Z,8.75
2023-04-22T07:12:18.097Z,8.95
2023-04-22T07:14:46.086Z,8.73
2023-04-22T07:17:13.322Z,9.23
2023-04-22T07:19:40.890Z,9.68
2023-04-22T07:22:08.778Z,9.55
2023-04-22T07:24:36.031Z,8.93
2023-04-22T07:27:03.693Z,10.38
2023-04-22T07:29:30.977Z,8.75
2023-04-22T07:31:58.179Z,9.05
2023-04-22T07:34:25.473Z,9.38
2023-04-22T07:36:53.466Z,10.45
2023-04-22T07:39:20.816Z,9.38
2023-04-22T07:41:48.058Z,9.82
2023-04-22T07:44:18.405Z,8.65
2023-04-22T07:46:45.659Z,9.20
2023-04-22T07:49:14.147Z,9.05
2023-04-22T07:51:41.581Z,8.73
2023-04-22T07:54:08.846Z,9.10
2023-04-22T07:56:36.172Z,9.27
2023-04-22T07:59:04.226Z,9.13
2023-04-22T08:01:31.535Z,9.45
2023-04-22T08:03:59.188Z,9.45
2023-04-22T08:06:28.095Z,9.70
2023-04-22T08:08:55.443Z,9.23
2023-04-22T08:11:22.698Z,9.32
2023-04-22T08:13:49.893Z,10.18
2023-04-22T08:16:17.227Z,9.90
2023-04-22T08:18:44.468Z,10.13
2023-04-22T08:21:12.500Z,10.65
2023-04-22T08:23:39.808Z,9.63
2023-04-22T08:26:09.551Z,9.55
2023-04-22T08:28:38.193Z,9.10
2023-04-22T08:31:06.699Z,9.07
2023-04-22T08:33:34.178Z,9.35
2023-04-22T08:36:03.878Z,8.73
2023-04-22T08:38:32.103Z,8.68
2023-04-22T08:41:00.683Z,7.50
2023-04-22T08:43:28.566Z,7.30
2023-04-22T08:45:56.769Z,6.93
2023-04-22T08:48:26.916Z,6.97
2023-04-22T08:50:54.302Z,7.93
2023-04-22T08:53:24.242Z,6.93
2023-04-22T08:55:54.826Z,7.18
2023-04-22T08:58:23.121Z,7.13
2023-04-22T09:00:52.936Z,6.65
2023-04-22T09:03:26.414Z,7.20
2023-04-22T09:05:55.311Z,6.80
2023-04-22T09:08:23.053Z,5.90
2023-04-22T09:10:50.779Z,5.90
2023-04-22T09:13:18.848Z,5.03
2023-04-22T09:15:46.213Z,4.70
2023-04-22T09:18:18.965Z,5.18
2023-04-22T09:20:49.878Z,5.65
2023-04-22T09:23:17.179Z,5.32
2023-04-22T09:25:46.285Z,6.30
2023-04-22T09:28:18.862Z,5.68
2023-04-22T09:30:47.119Z,6.25
2023-04-22T09:33:15.555Z,6.10
2023-04-22T09:35:43.774Z,5.20
2023-04-22T09:38:12.234Z,6.10
2023-04-22T09:40:43.339Z,5.40
2023-04-22T09:43:11.589Z,5.35
2023-04-22T09:45:41.371Z,6.18
2023-04-22T09:48:18.402Z,5.40
2023-04-22T09:50:48.413Z,7.35
2023-04-22T09:53:18.914Z,6.25
2023-04-22T09:55:48.639Z,5.15
2023-04-22T09:58:17.577Z,6.25
2023-04-22T10:00:51.057Z,7.18
2023-04-22T10:03:19.034Z,5.90
2023-04-22T10:05:47.120Z,6.55
2023-04-22T10:08:16.094Z,6.82
2023-04-22T10:10:43.994Z,6.38
2023-04-22T10:13:11.645Z,5.88
2023-04-22T10:15:45.748Z,6.28
2023-04-22T10:18:18.638Z,6.15
2023-04-22T10:20:47.379Z,5.82
2023-04-22T10:23:18.817Z,6.20
2023-04-22T10:25:52.956Z,5.75
2023-04-22T10:28:22.386Z,5.85
2023-04-22T10:30:50.661Z,5.57
2023-04-22T10:33:21.054Z,6.05
2023-04-22T10:36:07.929Z,6.00
2023-04-22T10:38:36.458Z,5.90
2023-04-22T10:41:04.058Z,6.78
2023-04-22T10:43:42.431Z,6.32
2023-04-22T10:46:36.975Z,7.55
2023-04-22T10:49:08.892Z,7.50
2023-04-22T10:51:43.451Z,6.70
2023-04-22T10:54:28.100Z,7.03
2023-04-22T10:57:11.882Z,7.05
2023-04-22T10:59:52.701Z,7.32
2023-04-22T11:02:21.856Z,7.15
2023-04-22T11:04:50.023Z,7.78
2023-04-22T11:07:20.672Z,6.70
2023-04-22T11:09:51.163Z,6.20
2023-04-22T11:12:39.353Z,6.03
2023-04-22T11:15:26.095Z,6.03
2023-04-22T11:17:54.719Z,5.70
2023-04-22T11:20:22.240Z,5.65
2023-04-22T11:22:52.800Z,6.00
2023-04-22T11:25:21.436Z,6.70
2023-04-22T11:27:49.206Z,6.32
2023-04-22T11:30:17.953Z,4.70
2023-04-22T11:32:46.246Z,6.30
2023-04-22T11:35:17.424Z,6.10
2023-04-22T11:37:59.837Z,6.18
2023-04-22T11:40:40.038Z,5.90
2023-04-22T11:43:09.933Z,6.38
2023-04-22T11:45:38.642Z,7.05
2023-04-22T11:48:08.207Z,5.55
2023-04-22T11:50:38.365Z,5.95
2023-04-22T11:53:17.708Z,5.75
2023-04-22T11:55:46.984Z,6.68
2023-04-22T11:58:16.935Z,6.13
2023-04-22T12:00:50.079Z,5.90
2023-04-22T12:03:21.644Z,6.00
2023-04-22T12:05:54.310Z,4.68
2023-04-22T12:08:23.945Z,4.38
2023-04-22T12:10:56.174Z,3.85
2023-04-22T12:13:33.175Z,3.20
2023-04-22T12:16:12.527Z,4.18
2023-04-22T12:18:53.507Z,4.10
2023-04-22T12:21:23.787Z,4.00
2023-04-22T12:23:53.161Z,5.88
2023-04-22T12:26:26.225Z,4.75
2023-04-22T12:28:55.021Z,5.60
2023-04-22T12:31:22.396Z,5.50
2023-04-22T12:33:50.263Z,6.32
2023-04-22T12:36:20.874Z,6.03
2023-04-22T12:38:48.375Z,5.45
2023-04-22T12:41:16.452Z,5.43
2023-04-22T12:43:43.704Z,6.70
2023-04-22T12:46:11.198Z,7.70
2023-04-22T12:48:38.581Z,7.05
2023-04-22T12:51:06.744Z,8.65
2023-04-22T12:53:34.659Z,7.55
2023-04-22T12:56:02.033Z,8.48
2023-04-22T12:58:29.274Z,7.72
2023-04-22T13:00:56.529Z,8.55
2023-04-22T13:03:24.127Z,7.47
2023-04-22T13:05:52.606Z,7.20
2023-04-22T13:08:19.887Z,7.65
2023-04-22T13:10:47.095Z,10.05
2023-04-22T13:13:18.461Z,10.80
2023-04-22T13:15:54.055Z,10.30
2023-04-22T13:18:23.591Z,10.48
2023-04-22T13:20:51.745Z,10.32
2023-04-22T13:23:21.500Z,11.02
2023-04-22T13:25:50.202Z,11.98
2023-04-22T13:28:17.483Z,10.90
2023-04-22T13:30:44.962Z,9.68
2023-04-22T13:33:12.322Z,10.43
2023-04-22T13:35:39.672Z,9.90
2023-04-22T13:38:07.185Z,11.63
2023-04-22T13:40:34.992Z,10.43
2023-04-22T13:43:02.260Z,9.77
2023-04-22T13:45:29.677Z,9.55
2023-04-22T13:47:57.035Z,8.60
2023-04-22T13:50:24.266Z,8.65
2023-04-22T13:52:51.722Z,10.57
2023-04-22T13:55:18.968Z,10.57
2023-04-22T13:57:46.405Z,9.00
2023-04-22T14:00:13.958Z,11.50
2023-04-22T14:02:41.656Z,10.35
2023-04-22T14:05:10.030Z,10.30
2023-04-22T14:07:37.379Z,10.68
2023-04-22T14:10:06.010Z,12.13
2023-04-22T14:12:33.264Z,10.88
2023-04-22T14:15:00.507Z,10.48
2023-04-22T14:17:27.814Z,11.00
2023-04-22T14:19:55.237Z,10.57
2023-04-22T14:22:22.495Z,11.50
2023-04-22T14:24:49.834Z,10.48
2023-04-22T14:27:17.118Z,10.63
2023-04-22T14:29:45.641Z,11.75
2023-04-22T14:32:12.915Z,11.98
2023-04-22T14:34:40.184Z,10.27
2023-04-22T14:37:07.433Z,10.68
2023-04-22T14:39:34.666Z,10.98
2023-04-22T14:42:02.522Z,11.27
2023-04-22T14:44:29.758Z,11.02
2023-04-22T14:46:57.189Z,11.43
2023-04-22T14:49:24.388Z,11.15
2023-04-22T14:51:52.290Z,10.77
2023-04-22T14:54:19.584Z,12.75
2023-04-22T14:56:47.416Z,11.30
2023-04-22T14:59:14.741Z,11.98
2023-04-22T15:01:43.011Z,11.80
2023-04-22T15:04:13.483Z,11.95
2023-04-22T15:06:41.279Z,11.48
2023-04-22T15:09:08.567Z,11.15
2023-04-22T15:11:35.916Z,11.50
2023-04-22T15:14:03.202Z,10.77
2023-04-22T15:16:30.480Z,11.57
2023-04-22T15:18:57.819Z,10.43
2023-04-22T15:21:25.043Z,10.20
2023-04-22T15:23:52.299Z,11.18
2023-04-22T15:26:19.618Z,9.65
2023-04-22T15:28:46.887Z,9.90
2023-04-22T15:31:14.104Z,10.55
2023-04-22T15:33:41.572Z,11.10
2023-04-22T15:36:09.711Z,10.43
2023-04-22T15:38:38.627Z,11.02
2023-04-22T15:41:05.856Z,10.88
2023-04-22T15:43:33.667Z,10.52
2023-04-22T15:46:01.289Z,11.50
2023-04-22T15:48:28.546Z,10.10
2023-04-22T15:50:55.779Z,9.43
2023-04-22T15:53:23.071Z,8.95
2023-04-22T15:55:51.478Z,10.40
2023-04-22T15:58:18.776Z,10.00
2023-04-22T16:00:46.131Z,11.30
2023-04-22T16:03:14.148Z,9.90
2023-04-22T16:05:41.526Z,9.38
2023-04-22T16:08:09.125Z,8.23
2023-04-22T16:10:36.389Z,8.88
2023-04-22T16:13:03.672Z,8.25
2023-04-22T16:15:31.241Z,8.02
2023-04-22T16:17:58.714Z,9.73
2023-04-22T16:20:26.036Z,8.55
2023-04-22T16:22:53.244Z,7.95
2023-04-22T16:25:20.757Z,7.63
2023-04-22T16:27:48.112Z,8.35
2023-04-22T16:30:16.306Z,7.35
2023-04-22T16:32:43.622Z,7.82
2023-04-22T16:35:11.360Z,7.38
2023-04-22T16:37:38.691Z,7.85
2023-04-22T16:40:07.485Z,7.45
2023-04-22T16:42:34.862Z,6.72
2023-04-22T16:45:02.261Z,7.43
2023-04-22T16:47:29.620Z,8.07
2023-04-22T16:49:56.830Z,6.57
2023-04-22T16:52:24.064Z,6.85
2023-04-22T16:54:51.617Z,6.47
2023-04-22T16:57:18.905Z,7.20
2023-04-22T16:59:46.212Z,6.68
2023-04-22T17:02:13.477Z,6.60
2023-04-22T17:04:40.933Z,6.50
2023-04-22T17:07:08.188Z,6.47
2023-04-22T17:09:35.457Z,6.30
2023-04-22T17:12:02.713Z,6.57
2023-04-22T17:14:30.711Z,6.65
2023-04-22T17:16:57.989Z,6.97
2023-04-22T17:19:25.604Z,6.57
2023-04-22T17:21:52.959Z,7.78
2023-04-22T17:24:22.260Z,7.30
2023-04-22T17:26:49.694Z,7.32
2023-04-22T17:29:21.403Z,6.97
2023-04-22T17:31:49.119Z,7.50
2023-04-22T17:34:17.085Z,8.05
2023-04-22T17:36:44.312Z,8.23
2023-04-22T17:39:11.783Z,8.80
2023-04-22T17:41:39.169Z,8.73
2023-04-22T17:44:08.789Z,10.18
2023-04-22T17:46:36.248Z,9.13
2023-04-22T17:49:03.490Z,10.95
2023-04-22T17:51:31.440Z,10.77
2023-04-22T17:54:00.650Z,11.73
2023-04-22T17:56:27.980Z,11.45
2023-04-22T17:58:55.269Z,11.25
2023-04-22T18:01:22.529Z,12.10
2023-04-22T18:03:49.868Z,12.10
2023-04-22T18:06:17.224Z,12.35
2023-04-22T18:08:44.476Z,12.43
2023-04-22T18:11:11.862Z,11.88
2023-04-22T18:13:39.419Z,12.85
2023-04-22T18:16:07.364Z,11.75
2023-04-22T18:18:35.384Z,13.25
2023-04-22T18:21:02.709Z,11.98
2023-04-22T18:23:30.024Z,12.68
2023-04-22T18:25:57.242Z,12.65
2023-04-22T18:28:24.538Z,13.40
2023-04-22T18:30:52.200Z,13.65
2023-04-22T18:33:19.485Z,14.00
2023-04-22T18:35:46.710Z,13.48
2023-04-22T18:38:14.010Z,13.90
2023-04-22T18:40:41.259Z,11.98
2023-04-22T18:43:08.630Z,13.88
2023-04-22T18:45:35.799Z,14.32
2023-04-22T18:48:03.176Z,14.02
2023-04-22T18:50:30.452Z,14.95
2023-04-22T18:52:57.706Z,13.60
2023-04-22T18:55:24.901Z,16.73
2023-04-22T18:57:52.136Z,16.13
2023-04-22T19:00:20.082Z,15.75
2023-04-22T19:02:47.496Z,16.10
2023-04-22T19:05:15.185Z,15.20
2023-04-22T19:07:44.914Z,12.68
2023-04-22T19:10:12.714Z,12.18
2023-04-22T19:12:40.105Z,11.18
2023-04-22T19:15:08.612Z,10.48
2023-04-22T19:17:36.250Z,10.68
2023-04-22T19:20:06.025Z,10.73
2023-04-22T19:22:33.455Z,10.10
2023-04-22T19:25:00.945Z,10.52
2023-04-22T19:27:28.493Z,9.70
2023-04-22T19:29:56.217Z,10.75
2023-04-22T19:32:23.635Z,9.68
2023-04-22T19:34:50.989Z,10.00
2023-04-22T19:37:18.493Z,10.13
2023-04-22T19:39:45.827Z,10.55
2023-04-22T19:42:13.128Z,11.30
2023-04-22T19:44:42.837Z,11.68
2023-04-22T19:47:10.493Z,10.00
2023-04-22T19:49:38.984Z,12.40
2023-04-22T19:52:09.503Z,11.70
2023-04-22T19:54:37.060Z,11.93
2023-04-22T19:57:06.493Z,12.32
2023-04-22T19:59:34.278Z,12.50
2023-04-22T20:02:01.896Z,12.15
2023-04-22T20:04:29.586Z,12.70
2023-04-22T20:06:57.724Z,12.65
2023-04-22T20:09:26.483Z,12.75
2023-04-22T20:11:53.870Z,13.15
2023-04-22T20:14:22.314Z,13.05
2023-04-22T20:16:50.091Z,13.80
2023-04-22T20:19:17.934Z,13.00
2023-04-22T20:21:48.263Z,12.82
2023-04-22T20:24:19.045Z,13.50
2023-04-22T20:26:50.114Z,12.65
2023-04-22T20:29:22.172Z,13.70
2023-04-22T20:31:49.871Z,13.95
2023-04-22T20:34:17.412Z,13.90
2023-04-22T20:36:45.084Z,13.50
2023-04-22T20:39:14.118Z,12.38
2023-04-22T20:41:41.923Z,13.32
2023-04-22T20:44:09.214Z,12.23
2023-04-22T20:46:37.391Z,13.25
2023-04-22T20:49:04.643Z,13.40
2023-04-22T20:51:32.075Z,13.23
2023-04-22T20:53:59.368Z,12.25
2023-04-22T20:56:27.335Z,13.02
2023-04-22T20:58:54.618Z,13.10
2023-04-22T21:01:21.895Z,16.75
2023-04-22T21:03:54.079Z,14.18
2023-04-22T21:06:22.153Z,13.63
2023-04-22T21:08:50.112Z,12.20
2023-04-22T21:11:18.495Z,13.82
2023-04-22T21:13:46.306Z,12.85
2023-04-22T21:16:18.182Z,13.50
2023-04-22T21:18:46.522Z,12.30
2023-04-22T21:21:17.385Z,12.43
2023-04-22T21:23:44.929Z,12.93
2023-04-22T21:26:14.890Z,12.90
2023-04-22T21:28:42.753Z,12.77
2023-04-22T21:31:11.920Z,13.40
2023-04-22T21:33:42.610Z,12.90
2023-04-22T21:36:10.484Z,12.23
2023-04-22T21:38:38.086Z,13.90
2023-04-22T21:41:05.463Z,12.70
2023-04-22T21:43:32.806Z,13.75
2023-04-22T21:46:01.253Z,13.18
2023-04-22T21:48:29.078Z,12.52
2023-04-22T21:50:56.881Z,13.70
2023-04-22T21:53:24.869Z,13.90
2023-04-22T21:55:52.679Z,15.60
2023-04-22T21:58:20.913Z,15.60
2023-04-22T22:00:49.034Z,16.08
2023-04-22T22:03:16.708Z,16.35
2023-04-22T22:05:43.992Z,15.77
2023-04-22T22:08:11.716Z,15.15
2023-04-22T22:10:39.589Z,16.27
2023-04-22T22:13:08.245Z,15.00
2023-04-22T22:15:36.892Z,15.70
2023-04-22T22:18:05.000Z,15.73
2023-04-22T22:20:32.959Z,16.38
2023-04-22T22:23:01.202Z,16.52
2023-04-22T22:25:28.608Z,16.35
2023-04-22T22:27:56.569Z,16.25
2023-04-22T22:30:25.259Z,15.98
2023-04-22T22:32:53.060Z,17.50
2023-04-22T22:35:21.120Z,17.80
2023-04-22T22:37:48.356Z,17.30
2023-04-22T22:40:16.412Z,16.90
2023-04-22T22:42:43.886Z,17.42
2023-04-22T22:45:11.560Z,17.77
2023-04-22T22:47:39.045Z,17.45
2023-04-22T22:50:07.324Z,17.27
2023-04-22T22:52:34.541Z,19.10
2023-04-22T22:55:01.771Z,18.30
2023-04-22T22:57:29.027Z,17.08
2023-04-22T22:59:56.242Z,16.95
2023-04-22T23:02:23.688Z,18.33
2023-04-22T23:04:51.892Z,17.88
2023-04-22T23:07:19.174Z,18.27
2023-04-22T23:09:46.395Z,18.15
2023-04-22T23:12:13.674Z,18.02
2023-04-22T23:14:41.329Z,18.23
2023-04-22T23:17:08.978Z,18.25
2023-04-22T23:19:36.626Z,19.17
2023-04-22T23:22:05.845Z,18.83
2023-04-22T23:24:33.399Z,19.42
2023-04-22T23:27:01.217Z,17.77
2023-04-22T23:29:28.821Z,18.60
2023-04-22T23:31:56.940Z,19.15
2023-04-22T23:34:24.895Z,18.58
2023-04-22T23:36:53.000Z,16.90
2023-04-22T23:39:20.406Z,18.10
2023-04-22T23:41:47.979Z,17.42
2023-04-22T23:44:15.300Z,16.67
2023-04-22T23:46:42.558Z,18.10
2023-04-22T23:49:09.788Z,17.48
2023-04-22T23:51:38.119Z,18.33
2023-04-22T23:54:05.648Z,18.63
2023-04-22T23:56:33.134Z,18.75
2023-04-22T23:59:00.583Z,19.08
